Aeroporto :
LOGIN :

Iscrizione | Disclaimer

   EN    FR    IT 

 










Sommario :    VFR   VFR Marginale   IFR   IFR Intensivo   IFR Molto Intensivo
Visibilità : 
Base nubi : 
>= 8 km
>= 3000ft
5 / 8 km
1000 / 3000 ft
1500m / 5 km
500 / 1000 ft
800 / 1500m
200 / 500 ft
< 800m
< 200 ft
Simboli :   Temporali  Nebbia  Neve Forte  Precipitazioni Forti  Vento > 20 kt
SIGMETs :   Varie  Temporali  Ghiacco  Turbolenza  Onda orograficha  Ceneri Vulcaniche






- Altitudine del aeroporto : 1411 ft
- Codice IATA : GVA


LSGG - Genève Cointrin

ULTIMO METAR :
  • 142020Z 24007KT 9999 -SHRA FEW020 BKN045 09/07 Q1010 NOSIG

METARs OBSOLETI :
  • 141950Z VRB02KT 9999 FEW030 SCT045 BKN085 08/07 Q1010 NOSIG
  • 141920Z 13004KT 090V190 9999 -SHRA SCT040 BKN055 08/07 Q1011 NOSIG
  • 141850Z 26005KT 240V300 9000 -SHRA BKN040 09/07 Q1011 NOSIG
  • 141820Z 26008KT 9999 -SHRA FEW015 BKN040 09/07 Q1010 NOSIG
  • 141750Z 25008KT 9999 FEW015 SCT038 BKN065 09/07 Q1010 NOSIG

TAF TAF LSGG
Valido dal 14 a 18 ore il 16 a 00 ore UTC


141725Z 1418/1524 25008KT 9999 FEW030 BKN050 TX12/1514Z TN07/1506Z
PROB30
TEMPO 1419/1423 SHRA
BECMG 1515/1518 CAVOK
ATIS : +41 22 417 40 81



MetMap, La meteo Aeronautica in un colpo d'occhio ! - Copyright ORBIFLY Dicembre 2007 - Disclaimer

ORBIFLY MET'MAP TEAM :

Programmazione e sviluppo : Alexandra Zaïnal
Concezione : Baudouin d'Aumeries
Aiuto per la programmazione : Marc-Olivier Méhu
Supporto tecnico e logistico : Manuel Goepfert
Aiuto per la traduzione : Arnaldo La Scala

Contatto : metmap@orbifly.com




FONTI E CREDITI :

   NOAA